Varoey — LK9705 — position and weather

sailwx.info

Track history (hours):
 
Tides and Currents Weather Stations Pressure Air Temp Water Temp Dewpoint Dewpoint Depression Visibility Wind Speed Wind Dir Waves Ship Positions

Varoey

Last reported at 2018-May-15 11:47 UTC. Time now 2018-Jun-25 06:02 UTC.
Position N 69°47' E 019°15'.
Warning: this ship's position is 40 days out of date.

Length 12 m.

Type: Fishing. MMSI: 257208940.

Date/timePositionNaut miles runAvg speedWind from/ knotsBaromVisibWave heightAir tempDewpointWater temp
2018-May-15 11:47N 69°47' E 019°15'310.3
2018-May-15 11:29N 69°45' E 019°08'5 9.5
2018-May-15 11:00N 69°41' E 019°02'3 5.2
2018-May-15 10:30N 69°39' E 018°58'0 0.0
2018-May-15 10:00N 69°39' E 018°58'0 0.0
2018-May-15 09:30N 69°39' E 018°58'0 0.0
2018-May-15 09:00N 69°39' E 018°58'0 0.0
2018-May-15 08:30N 69°39' E 018°58'0 0.0
2018-May-15 08:00N 69°39' E 018°58'0 0.0
2018-May-15 07:30N 69°39' E 018°58'0 0.0
2018-May-15 07:00N 69°39' E 018°58'0 0.0
2018-May-15 06:30N 69°39' E 018°58'0 0.0
2018-May-15 06:00N 69°39' E 018°58'0 0.0
2018-May-15 05:30N 69°39' E 018°58'0 0.0
2018-May-15 05:00N 69°39' E 018°58'0 0.0
2018-May-15 04:30N 69°39' E 018°58'0 0.0
2018-May-15 04:00N 69°39' E 018°58'0 0.0
2018-May-15 03:30N 69°39' E 018°58'0 0.0
2018-May-15 03:00N 69°39' E 018°58'0 0.0
2018-May-15 02:30N 69°39' E 018°58'0 0.0
2018-May-15 02:00N 69°39' E 018°58'0 0.0
2018-May-15 01:30N 69°39' E 018°58'0 0.0
2018-May-15 01:00N 69°39' E 018°58'0 0.0
2018-May-15 00:30N 69°39' E 018°58'0 0.0
2018-May-15 00:00N 69°39' E 018°58'0 0.0
2018-May-14 23:30N 69°39' E 018°58'0 0.0
2018-May-14 23:00N 69°39' E 018°58'0 0.0
2018-May-14 22:30N 69°39' E 018°58'0 0.0
2018-May-14 22:00N 69°39' E 018°58'0 0.0
2018-May-14 21:30N 69°39' E 018°58'0 0.0
2018-May-14 21:00N 69°39' E 018°58'0 0.0
2018-May-14 20:30N 69°39' E 018°58'0 0.0
2018-May-14 20:00N 69°39' E 018°58'0 0.0
2018-May-14 19:30N 69°39' E 018°58'0 0.0
2018-May-14 19:00N 69°39' E 018°58'0 0.0
2018-May-14 18:30N 69°39' E 018°58'0 0.0
2018-May-14 18:00N 69°39' E 018°58'0 0.0
2018-May-14 17:30N 69°39' E 018°58'0 0.0
2018-May-14 17:00N 69°39' E 018°58'0 0.0
2018-May-14 16:30N 69°39' E 018°58'0 0.0
2018-May-14 16:00N 69°39' E 018°58'0 0.0
2018-May-14 15:29N 69°39' E 018°58'0 0.0
2018-May-14 14:59N 69°39' E 018°58'0 0.0
2018-May-14 14:29N 69°39' E 018°58'0 0.0
2018-May-14 13:59N 69°39' E 018°58'0 0.0
2018-May-14 13:29N 69°39' E 018°58'0 0.8
2018-May-14 12:58N 69°39' E 018°59'1 1.5
2018-May-14 12:28N 69°40' E 018°58'0 0.8
2018-May-14 11:53N 69°39' E 018°58'2 4.4
2018-May-14 11:30N 69°41' E 019°01'510.2
2018-May-14 11:00N 69°45' E 019°08'  
Track history (hours):
 
Tides and Currents Weather Stations Pressure Air Temp Water Temp Dewpoint Dewpoint Depression Visibility Wind Speed Wind Dir Waves Ship Positions

Varoey

Last reported at 2018-May-15 11:47 UTC. Time now 2018-Jun-25 06:02 UTC.
Position N 69°47' E 019°15'.
Warning: this ship's position is 40 days out of date.

Length 12 m.

Type: Fishing. MMSI: 257208940.

Date/timePositionNaut miles runAvg speedWind from/ knotsBaromVisibWave heightAir tempDewpointWater temp
2018-May-15 11:47N 69°47' E 019°15'310.3
2018-May-15 11:29N 69°45' E 019°08'5 9.5
2018-May-15 11:00N 69°41' E 019°02'3 5.2
2018-May-15 10:30N 69°39' E 018°58'0 0.0
2018-May-15 10:00N 69°39' E 018°58'0 0.0
2018-May-15 09:30N 69°39' E 018°58'0 0.0
2018-May-15 09:00N 69°39' E 018°58'0 0.0
2018-May-15 08:30N 69°39' E 018°58'0 0.0
2018-May-15 08:00N 69°39' E 018°58'0 0.0
2018-May-15 07:30N 69°39' E 018°58'0 0.0
2018-May-15 07:00N 69°39' E 018°58'0 0.0
2018-May-15 06:30N 69°39' E 018°58'0 0.0
2018-May-15 06:00N 69°39' E 018°58'0 0.0
2018-May-15 05:30N 69°39' E 018°58'0 0.0
2018-May-15 05:00N 69°39' E 018°58'0 0.0
2018-May-15 04:30N 69°39' E 018°58'0 0.0
2018-May-15 04:00N 69°39' E 018°58'0 0.0
2018-May-15 03:30N 69°39' E 018°58'0 0.0
2018-May-15 03:00N 69°39' E 018°58'0 0.0
2018-May-15 02:30N 69°39' E 018°58'0 0.0
2018-May-15 02:00N 69°39' E 018°58'0 0.0
2018-May-15 01:30N 69°39' E 018°58'0 0.0
2018-May-15 01:00N 69°39' E 018°58'0 0.0
2018-May-15 00:30N 69°39' E 018°58'0 0.0
2018-May-15 00:00N 69°39' E 018°58'0 0.0
2018-May-14 23:30N 69°39' E 018°58'0 0.0
2018-May-14 23:00N 69°39' E 018°58'0 0.0
2018-May-14 22:30N 69°39' E 018°58'0 0.0
2018-May-14 22:00N 69°39' E 018°58'0 0.0
2018-May-14 21:30N 69°39' E 018°58'0 0.0
2018-May-14 21:00N 69°39' E 018°58'0 0.0
2018-May-14 20:30N 69°39' E 018°58'0 0.0
2018-May-14 20:00N 69°39' E 018°58'0 0.0
2018-May-14 19:30N 69°39' E 018°58'0 0.0
2018-May-14 19:00N 69°39' E 018°58'0 0.0
2018-May-14 18:30N 69°39' E 018°58'0 0.0
2018-May-14 18:00N 69°39' E 018°58'0 0.0
2018-May-14 17:30N 69°39' E 018°58'0 0.0
2018-May-14 17:00N 69°39' E 018°58'0 0.0
2018-May-14 16:30N 69°39' E 018°58'0 0.0
2018-May-14 16:00N 69°39' E 018°58'0 0.0
2018-May-14 15:29N 69°39' E 018°58'0 0.0
2018-May-14 14:59N 69°39' E 018°58'0 0.0
2018-May-14 14:29N 69°39' E 018°58'0 0.0
2018-May-14 13:59N 69°39' E 018°58'0 0.0
2018-May-14 13:29N 69°39' E 018°58'0 0.8
2018-May-14 12:58N 69°39' E 018°59'1 1.5
2018-May-14 12:28N 69°40' E 018°58'0 0.8
2018-May-14 11:53N 69°39' E 018°58'2 4.4
2018-May-14 11:30N 69°41' E 019°01'510.2
2018-May-14 11:00N 69°45' E 019°08'  

Dump ship's entire track history